createdAt,value
2018-11-04T00:00:04.579Z,22.10
2018-11-04T00:02:33.276Z,23.57
2018-11-04T00:05:02.021Z,20.70
2018-11-04T00:07:31.446Z,20.90
2018-11-04T00:10:00.204Z,22.90
2018-11-04T00:12:29.046Z,22.05
2018-11-04T00:14:57.904Z,21.10
2018-11-04T00:17:26.555Z,20.15
2018-11-04T00:19:55.328Z,21.37
2018-11-04T00:22:23.975Z,21.10
2018-11-04T00:24:52.678Z,21.62
2018-11-04T00:27:21.446Z,22.58
2018-11-04T00:29:50.270Z,21.00
2018-11-04T00:32:19.104Z,22.27
2018-11-04T00:34:48.476Z,24.52
2018-11-04T00:37:17.226Z,19.65
2018-11-04T00:39:45.957Z,21.05
2018-11-04T00:42:14.705Z,20.08
2018-11-04T00:44:43.384Z,20.35
2018-11-04T00:47:12.181Z,20.15
2018-11-04T00:49:40.881Z,22.13
2018-11-04T00:52:16.279Z,21.27
2018-11-04T00:54:44.973Z,20.43
2018-11-04T00:57:13.709Z,19.87
2018-11-04T00:59:42.552Z,20.32
2018-11-04T01:02:11.527Z,20.95
2018-11-04T01:04:40.361Z,20.57
2018-11-04T01:07:09.172Z,22.73
2018-11-04T01:09:38.137Z,20.82
2018-11-04T01:12:06.955Z,21.75
2018-11-04T01:14:35.718Z,20.62
2018-11-04T01:17:04.652Z,21.95
2018-11-04T01:19:33.347Z,21.45
2018-11-04T01:22:02.070Z,20.12
2018-11-04T01:24:30.854Z,21.48
2018-11-04T01:26:59.698Z,21.45
2018-11-04T01:29:28.401Z,21.45
2018-11-04T01:31:57.200Z,19.57
2018-11-04T01:34:25.916Z,19.27
2018-11-04T01:36:54.696Z,22.75
2018-11-04T01:39:23.453Z,22.02
2018-11-04T01:41:53.053Z,19.55
2018-11-04T01:44:21.854Z,22.07
2018-11-04T01:46:50.665Z,22.58
2018-11-04T01:49:19.324Z,23.15
2018-11-04T01:51:48.059Z,21.70
2018-11-04T01:54:16.844Z,22.30
2018-11-04T01:56:45.519Z,22.07
2018-11-04T01:59:14.203Z,21.57
2018-11-04T02:01:42.977Z,21.75
2018-11-04T02:04:11.891Z,20.45
2018-11-04T02:06:40.485Z,21.80
2018-11-04T02:09:10.678Z,20.52
2018-11-04T02:11:39.371Z,21.70
2018-11-04T02:14:08.217Z,20.32
2018-11-04T02:16:37.510Z,22.13
2018-11-04T02:19:06.457Z,21.60
2018-11-04T02:21:35.311Z,20.85
2018-11-04T02:24:04.200Z,23.47
2018-11-04T02:26:33.031Z,21.30
2018-11-04T02:29:01.776Z,20.57
2018-11-04T02:31:30.564Z,20.27
2018-11-04T02:34:00.148Z,21.55
2018-11-04T02:36:29.034Z,21.42
2018-11-04T02:38:58.262Z,21.33
2018-11-04T02:41:27.003Z,20.85
2018-11-04T02:43:55.710Z,20.50
2018-11-04T02:46:24.421Z,21.87
2018-11-04T02:48:53.096Z,21.07
2018-11-04T02:51:21.793Z,19.95
2018-11-04T02:53:50.511Z,21.35
2018-11-04T02:56:19.277Z,19.65
2018-11-04T02:58:47.952Z,19.27
2018-11-04T03:01:16.598Z,19.20
2018-11-04T03:03:45.425Z,18.52
2018-11-04T03:06:14.149Z,19.62
2018-11-04T03:08:42.947Z,20.27
2018-11-04T03:11:11.654Z,20.75
2018-11-04T03:13:40.911Z,21.75
2018-11-04T03:16:09.579Z,19.90
2018-11-04T03:18:38.293Z,20.60
2018-11-04T03:21:07.644Z,22.17
2018-11-04T03:23:36.585Z,22.37
2018-11-04T03:26:05.274Z,23.60
2018-11-04T03:28:33.984Z,23.92
2018-11-04T03:31:03.160Z,22.00
2018-11-04T03:33:31.955Z,22.13
2018-11-04T03:36:00.733Z,24.47
2018-11-04T03:38:29.423Z,24.50
2018-11-04T03:40:58.113Z,22.95
2018-11-04T03:43:26.768Z,24.18
2018-11-04T03:45:55.486Z,21.17
2018-11-04T03:48:24.193Z,22.13
2018-11-04T03:50:52.865Z,23.12
2018-11-04T03:53:21.602Z,21.70
2018-11-04T03:55:50.216Z,22.85
2018-11-04T03:58:18.909Z,21.02
2018-11-04T04:00:47.687Z,21.40
2018-11-04T04:03:16.432Z,21.30
2018-11-04T04:05:45.511Z,23.15
2018-11-04T04:08:14.293Z,21.97
2018-11-04T04:10:42.973Z,22.05
2018-11-04T04:13:11.766Z,21.55
2018-11-04T04:15:40.444Z,21.95
2018-11-04T04:18:09.165Z,24.57
2018-11-04T04:20:37.880Z,20.50
2018-11-04T04:23:06.769Z,22.30
2018-11-04T04:25:35.492Z,22.37
2018-11-04T04:28:04.342Z,22.32
2018-11-04T04:30:32.978Z,22.82
2018-11-04T04:33:01.695Z,22.73
2018-11-04T04:35:30.380Z,23.15
2018-11-04T04:37:59.089Z,21.17
2018-11-04T04:40:27.844Z,21.42
2018-11-04T04:42:56.612Z,21.37
2018-11-04T04:45:25.295Z,19.77
2018-11-04T04:47:53.986Z,19.87
2018-11-04T04:50:22.826Z,21.85
2018-11-04T04:52:51.556Z,37.50
2018-11-04T04:55:20.429Z,22.73
2018-11-04T04:57:49.088Z,23.45
2018-11-04T05:00:17.833Z,21.35
2018-11-04T05:02:46.671Z,21.77
2018-11-04T05:05:15.419Z,25.80
2018-11-04T05:07:44.143Z,20.90
2018-11-04T05:10:12.883Z,22.90
2018-11-04T05:12:41.512Z,23.20
2018-11-04T05:15:11.169Z,23.60
2018-11-04T05:17:39.848Z,21.60
2018-11-04T05:20:08.617Z,22.10
2018-11-04T05:22:37.384Z,22.60
2018-11-04T05:25:06.346Z,20.40
2018-11-04T05:27:35.086Z,20.72
2018-11-04T05:30:03.862Z,21.25
2018-11-04T05:32:32.563Z,23.98
2018-11-04T05:35:01.219Z,23.40
2018-11-04T05:37:29.943Z,22.10
2018-11-04T05:39:58.644Z,23.62
2018-11-04T05:42:27.290Z,23.32
2018-11-04T05:44:56.061Z,22.60
2018-11-04T05:47:24.776Z,20.32
2018-11-04T05:49:53.591Z,21.33
2018-11-04T05:52:22.373Z,21.93
2018-11-04T05:54:51.060Z,23.00
2018-11-04T05:57:19.752Z,23.10
2018-11-04T05:59:48.583Z,22.62
2018-11-04T06:02:17.338Z,22.45
2018-11-04T06:04:46.209Z,24.63
2018-11-04T06:07:15.331Z,25.48
2018-11-04T06:09:44.055Z,25.32
2018-11-04T06:12:13.987Z,23.55
2018-11-04T06:14:42.619Z,25.88
2018-11-04T06:17:11.435Z,22.22
2018-11-04T06:19:40.331Z,21.17
2018-11-04T06:22:09.452Z,24.25
2018-11-04T06:24:38.182Z,23.22
2018-11-04T06:27:07.037Z,23.52
2018-11-04T06:29:35.694Z,21.57
2018-11-04T06:32:04.530Z,23.77
2018-11-04T06:34:33.321Z,21.73
2018-11-04T06:37:01.969Z,23.85
2018-11-04T06:39:30.710Z,23.32
2018-11-04T06:41:59.492Z,23.85
2018-11-04T06:44:28.211Z,22.65
2018-11-04T06:46:56.998Z,24.60
2018-11-04T06:49:25.575Z,23.95
2018-11-04T06:51:54.295Z,24.45
2018-11-04T06:54:22.880Z,22.55
2018-11-04T06:56:51.965Z,22.90
2018-11-04T06:59:20.639Z,21.95
2018-11-04T07:01:49.392Z,23.77
2018-11-04T07:04:24.241Z,21.97
2018-11-04T07:06:52.871Z,23.27
2018-11-04T07:09:21.555Z,21.48
2018-11-04T07:11:50.726Z,21.05
2018-11-04T07:14:20.125Z,23.18
2018-11-04T07:16:48.805Z,23.52
2018-11-04T07:19:17.619Z,21.40
2018-11-04T07:21:46.283Z,22.73
2018-11-04T07:24:14.893Z,23.57
2018-11-04T07:26:43.472Z,21.85
2018-11-04T07:29:12.368Z,23.45
2018-11-04T07:31:41.033Z,23.30
2018-11-04T07:34:09.734Z,23.98
2018-11-04T07:36:38.375Z,24.70
2018-11-04T07:39:10.821Z,22.52
2018-11-04T07:41:39.535Z,21.15
2018-11-04T07:44:08.419Z,23.12
2018-11-04T07:46:37.045Z,26.20
2018-11-04T07:49:06.001Z,23.18
2018-11-04T07:51:34.812Z,23.50
2018-11-04T07:54:03.486Z,25.43
2018-11-04T07:56:32.241Z,25.92
2018-11-04T07:59:00.971Z,24.05
2018-11-04T08:01:29.692Z,24.82
2018-11-04T08:03:58.480Z,23.02
2018-11-04T08:06:27.215Z,23.65
2018-11-04T08:08:55.901Z,24.67
2018-11-04T08:11:24.825Z,23.35
2018-11-04T08:13:53.437Z,24.25
2018-11-04T08:16:22.212Z,24.43
2018-11-04T08:18:50.859Z,24.10
2018-11-04T08:21:19.618Z,23.65
2018-11-04T08:23:48.356Z,24.90
2018-11-04T08:26:17.071Z,24.45
2018-11-04T08:28:45.740Z,24.85
2018-11-04T08:31:14.610Z,24.77
2018-11-04T08:33:43.263Z,23.22
2018-11-04T08:36:14.247Z,23.42
2018-11-04T08:38:45.621Z,22.95
2018-11-04T08:41:14.516Z,24.20
2018-11-04T08:43:43.677Z,23.62
2018-11-04T08:46:12.386Z,24.23
2018-11-04T08:48:41.192Z,24.40
2018-11-04T08:51:10.445Z,24.65
2018-11-04T08:53:39.172Z,25.92
2018-11-04T08:56:07.946Z,25.65
2018-11-04T08:58:36.638Z,25.40
2018-11-04T09:01:05.737Z,24.92
2018-11-04T09:03:34.522Z,22.95
2018-11-04T09:06:03.426Z,24.77
2018-11-04T09:08:32.680Z,24.30
2018-11-04T09:11:01.401Z,23.60
2018-11-04T09:13:30.530Z,24.70
2018-11-04T09:15:59.307Z,24.80
2018-11-04T09:18:28.133Z,25.60
2018-11-04T09:20:56.783Z,24.82
2018-11-04T09:23:25.566Z,26.10
2018-11-04T09:25:54.257Z,26.48
2018-11-04T09:28:22.987Z,25.82
2018-11-04T09:30:51.796Z,26.55
2018-11-04T09:33:20.574Z,24.80
2018-11-04T09:35:49.419Z,25.10
2018-11-04T09:38:17.970Z,25.68
2018-11-04T09:40:46.748Z,27.40
2018-11-04T09:43:15.434Z,24.02
2018-11-04T09:45:44.307Z,23.90
2018-11-04T09:48:13.221Z,23.98
2018-11-04T09:50:42.007Z,23.70
2018-11-04T09:53:10.827Z,24.95
2018-11-04T09:55:40.377Z,23.77
2018-11-04T09:58:09.129Z,25.32
2018-11-04T10:00:37.905Z,26.97
2018-11-04T10:03:06.695Z,22.67
2018-11-04T10:05:35.792Z,25.27
2018-11-04T10:08:04.585Z,24.55
2018-11-04T10:10:33.993Z,22.65
2018-11-04T10:13:02.897Z,23.85
2018-11-04T10:15:31.908Z,24.18
2018-11-04T10:18:00.737Z,23.20
2018-11-04T10:20:29.816Z,25.08
2018-11-04T10:22:58.381Z,25.02
2018-11-04T10:25:27.278Z,25.25
2018-11-04T10:27:57.021Z,25.80
2018-11-04T10:30:26.007Z,23.95
2018-11-04T10:32:54.742Z,24.20
2018-11-04T10:35:23.489Z,24.57
2018-11-04T10:37:52.780Z,24.12
2018-11-04T10:40:21.581Z,23.60
2018-11-04T10:42:50.337Z,26.65
2018-11-04T10:45:19.329Z,25.43
2018-11-04T10:47:48.145Z,23.35
2018-11-04T10:50:17.013Z,25.20
2018-11-04T10:52:46.061Z,24.45
2018-11-04T10:55:14.913Z,25.05
2018-11-04T10:57:43.748Z,24.92
2018-11-04T11:00:17.937Z,25.05
2018-11-04T11:02:46.832Z,26.57
2018-11-04T11:05:16.050Z,25.05
2018-11-04T11:07:45.151Z,25.45
2018-11-04T11:10:14.066Z,27.32
2018-11-04T11:12:42.898Z,27.52
2018-11-04T11:15:12.242Z,25.48
2018-11-04T11:17:41.711Z,27.95
2018-11-04T11:20:11.990Z,23.75
2018-11-04T11:22:41.452Z,25.50
2018-11-04T11:25:10.984Z,27.67
2018-11-04T11:27:40.557Z,22.82
2018-11-04T11:30:10.133Z,26.05
2018-11-04T11:32:39.479Z,24.82
2018-11-04T11:35:08.298Z,24.55
2018-11-04T11:37:37.037Z,25.72
2018-11-04T11:40:07.396Z,26.50
2018-11-04T11:42:36.241Z,25.60
2018-11-04T11:45:05.982Z,25.60
2018-11-04T11:47:34.747Z,27.62
2018-11-04T11:50:03.944Z,27.62
2018-11-04T11:52:32.792Z,24.77
2018-11-04T11:55:01.726Z,26.42
2018-11-04T11:57:30.467Z,26.75
2018-11-04T11:59:59.288Z,28.40
2018-11-04T12:02:28.105Z,27.58
2018-11-04T12:04:56.971Z,27.00
2018-11-04T12:07:25.672Z,25.15
2018-11-04T12:09:54.457Z,27.02
2018-11-04T12:12:23.127Z,27.80
2018-11-04T12:14:51.754Z,27.35
2018-11-04T12:17:20.636Z,26.42
2018-11-04T12:19:49.400Z,26.00
2018-11-04T12:22:18.515Z,27.55
2018-11-04T12:24:47.369Z,29.12
2018-11-04T12:27:16.165Z,27.25
2018-11-04T12:29:45.162Z,24.80
2018-11-04T12:32:13.989Z,26.15
2018-11-04T12:34:42.845Z,28.23
2018-11-04T12:37:11.856Z,27.02
2018-11-04T12:39:40.900Z,26.40
2018-11-04T12:42:09.727Z,28.17
2018-11-04T12:44:38.731Z,26.23
2018-11-04T12:47:07.617Z,26.40
2018-11-04T12:49:36.328Z,30.43
2018-11-04T12:52:05.663Z,26.93
2018-11-04T12:54:34.703Z,28.35
2018-11-04T12:57:03.860Z,27.25
2018-11-04T12:59:32.906Z,26.20
2018-11-04T13:02:01.807Z,27.27
2018-11-04T13:04:30.648Z,26.80
2018-11-04T13:06:59.772Z,25.55
2018-11-04T13:09:28.457Z,26.68
2018-11-04T13:11:57.123Z,29.07
2018-11-04T13:14:25.934Z,27.20
2018-11-04T13:16:54.662Z,28.70
2018-11-04T13:19:23.480Z,27.37
2018-11-04T13:21:52.398Z,27.50
2018-11-04T13:24:21.847Z,25.12
2018-11-04T13:26:51.755Z,28.50
2018-11-04T13:29:20.476Z,27.85
2018-11-04T13:31:49.879Z,26.10
2018-11-04T13:34:18.593Z,26.50
2018-11-04T13:36:47.365Z,29.05
2018-11-04T13:39:16.189Z,26.40
2018-11-04T13:41:44.942Z,26.48
2018-11-04T13:44:13.693Z,27.05
2018-11-04T13:46:42.401Z,26.35
2018-11-04T13:49:11.356Z,27.32
2018-11-04T13:51:40.092Z,26.20
2018-11-04T13:54:08.869Z,26.95
2018-11-04T13:56:37.742Z,26.42
2018-11-04T13:59:06.465Z,29.25
2018-11-04T14:01:35.379Z,28.90
2018-11-04T14:04:04.099Z,27.70
2018-11-04T14:06:32.830Z,26.75
2018-11-04T14:09:01.552Z,27.37
2018-11-04T14:11:31.287Z,25.25
2018-11-04T14:14:00.046Z,26.15
2018-11-04T14:16:28.804Z,29.55
2018-11-04T14:18:57.930Z,27.65
2018-11-04T14:21:26.542Z,27.10
2018-11-04T14:23:55.554Z,28.55
2018-11-04T14:26:24.369Z,27.27
2018-11-04T14:28:54.237Z,27.90
2018-11-04T14:31:23.178Z,26.93
2018-11-04T14:33:51.903Z,28.35
2018-11-04T14:36:20.672Z,30.57
2018-11-04T14:38:49.457Z,29.10
2018-11-04T14:41:18.199Z,26.85
2018-11-04T14:43:46.971Z,27.75
2018-11-04T14:46:15.760Z,27.82
2018-11-04T14:48:44.554Z,29.70
2018-11-04T14:51:13.275Z,29.60
2018-11-04T14:53:42.276Z,28.83
2018-11-04T14:56:11.957Z,27.98
2018-11-04T14:58:40.877Z,30.23
2018-11-04T15:01:09.890Z,30.97
2018-11-04T15:03:38.684Z,30.10
2018-11-04T15:06:07.511Z,30.27
2018-11-04T15:08:36.231Z,30.05
2018-11-04T15:11:05.149Z,29.20
2018-11-04T15:13:34.010Z,31.27
2018-11-04T15:16:02.769Z,31.15
2018-11-04T15:18:31.618Z,30.10
2018-11-04T15:21:00.482Z,35.03
2018-11-04T15:23:29.294Z,29.27
2018-11-04T15:25:58.370Z,32.15
2018-11-04T15:28:27.129Z,34.40
2018-11-04T15:30:55.935Z,31.10
2018-11-04T15:33:24.620Z,30.25
2018-11-04T15:35:53.387Z,31.35
2018-11-04T15:38:22.214Z,29.82
2018-11-04T15:40:51.093Z,33.80
2018-11-04T15:43:19.963Z,30.92
2018-11-04T15:45:48.929Z,31.27
2018-11-04T15:48:17.693Z,30.52
2018-11-04T15:50:46.477Z,30.57
2018-11-04T15:53:15.459Z,30.82
2018-11-04T15:55:44.172Z,31.57
2018-11-04T15:58:13.059Z,30.00
2018-11-04T16:00:41.985Z,29.23
2018-11-04T16:03:10.718Z,32.48
2018-11-04T16:05:39.757Z,36.83
2018-11-04T16:08:08.488Z,30.37
2018-11-04T16:10:37.284Z,33.80
2018-11-04T16:13:06.167Z,31.90
2018-11-04T16:15:34.977Z,30.90
2018-11-04T16:18:04.654Z,33.67
2018-11-04T16:20:33.738Z,31.97
2018-11-04T16:23:02.829Z,32.88
2018-11-04T16:25:31.595Z,34.15
2018-11-04T16:28:01.228Z,30.43
2018-11-04T16:30:30.530Z,30.80
2018-11-04T16:32:59.423Z,30.85
2018-11-04T16:35:28.078Z,32.65
2018-11-04T16:37:56.916Z,31.57
2018-11-04T16:40:25.486Z,32.83
2018-11-04T16:42:55.000Z,30.75
2018-11-04T16:45:23.843Z,30.72
2018-11-04T16:47:52.651Z,30.65
2018-11-04T16:50:21.368Z,30.72
2018-11-04T16:52:50.187Z,32.13
2018-11-04T16:55:19.060Z,32.73
2018-11-04T16:57:47.875Z,30.25
2018-11-04T17:00:16.913Z,34.85
2018-11-04T17:02:45.666Z,30.52
2018-11-04T17:05:14.650Z,28.83
2018-11-04T17:07:43.630Z,29.48
2018-11-04T17:10:12.737Z,30.00
2018-11-04T17:12:41.411Z,31.80
2018-11-04T17:15:12.053Z,29.70
2018-11-04T17:17:40.963Z,29.37
2018-11-04T17:20:11.647Z,29.57
2018-11-04T17:22:43.294Z,28.10
2018-11-04T17:25:12.309Z,30.60
2018-11-04T17:27:41.263Z,31.00
2018-11-04T17:30:14.640Z,30.40
2018-11-04T17:32:43.785Z,29.32
2018-11-04T17:35:13.621Z,29.12
2018-11-04T17:37:42.869Z,27.93
2018-11-04T17:40:12.706Z,28.27
2018-11-04T17:42:41.382Z,31.05
2018-11-04T17:45:14.707Z,31.95
2018-11-04T17:47:43.474Z,30.50
2018-11-04T17:50:16.558Z,29.45
2018-11-04T17:52:46.172Z,27.50
2018-11-04T17:55:15.262Z,27.27
2018-11-04T17:57:44.635Z,27.60
2018-11-04T18:00:15.219Z,25.60
2018-11-04T18:02:44.317Z,28.83
2018-11-04T18:05:14.379Z,26.27
2018-11-04T18:07:44.947Z,23.65
2018-11-04T18:10:14.972Z,23.25
2018-11-04T18:12:43.780Z,26.02
2018-11-04T18:15:15.464Z,24.98
2018-11-04T18:17:44.377Z,23.42
2018-11-04T18:20:13.506Z,22.75
2018-11-04T18:22:42.220Z,21.20
2018-11-04T18:25:12.676Z,21.97
2018-11-04T18:27:41.285Z,23.10
2018-11-04T18:30:12.695Z,22.00
2018-11-04T18:32:41.493Z,21.12
2018-11-04T18:35:11.342Z,23.67
2018-11-04T18:37:41.010Z,24.65
2018-11-04T18:40:12.161Z,23.55
2018-11-04T18:42:41.163Z,21.48
2018-11-04T18:45:11.491Z,22.00
2018-11-04T18:47:40.298Z,21.50
2018-11-04T18:50:11.047Z,20.05
2018-11-04T18:52:39.918Z,20.30
2018-11-04T18:55:09.888Z,23.57
2018-11-04T18:57:38.983Z,22.85
2018-11-04T19:00:10.872Z,19.10
2018-11-04T19:02:39.701Z,18.75
2018-11-04T19:05:09.352Z,20.43
2018-11-04T19:07:38.527Z,19.75
2018-11-04T19:10:11.603Z,21.12
2018-11-04T19:12:40.446Z,20.97
2018-11-04T19:15:09.594Z,19.80
2018-11-04T19:17:38.530Z,19.87
2018-11-04T19:20:10.541Z,18.82
2018-11-04T19:22:40.203Z,19.62
2018-11-04T19:25:11.731Z,21.30
2018-11-04T19:27:40.950Z,20.48
2018-11-04T19:30:12.782Z,19.60
2018-11-04T19:32:42.841Z,19.40
2018-11-04T19:35:13.050Z,20.57
2018-11-04T19:37:42.295Z,18.80
2018-11-04T19:40:13.003Z,20.48
2018-11-04T19:42:42.053Z,18.48
2018-11-04T19:45:12.086Z,18.65
2018-11-04T19:47:40.954Z,18.90
2018-11-04T19:50:13.706Z,17.57
2018-11-04T19:52:43.193Z,17.10
2018-11-04T19:55:14.294Z,16.85
2018-11-04T19:57:43.351Z,18.80
2018-11-04T20:00:13.851Z,16.50
2018-11-04T20:02:43.000Z,16.50
2018-11-04T20:05:12.922Z,15.05
2018-11-04T20:07:41.988Z,17.07
2018-11-04T20:10:14.589Z,16.70
2018-11-04T20:12:48.760Z,16.48
2018-11-04T20:15:18.050Z,15.20
2018-11-04T20:17:48.067Z,16.75
2018-11-04T20:20:27.655Z,15.35
2018-11-04T20:22:58.145Z,14.93
2018-11-04T20:25:32.395Z,16.48
2018-11-04T20:28:01.499Z,16.07
2018-11-04T20:30:30.398Z,13.85
2018-11-04T20:33:05.588Z,15.53
2018-11-04T20:35:34.394Z,15.10
2018-11-04T20:38:03.400Z,14.65
2018-11-04T20:40:37.532Z,14.28
2018-11-04T20:43:06.423Z,14.15
2018-11-04T20:45:35.377Z,13.53
2018-11-04T20:48:09.712Z,13.22
2018-11-04T20:57:54.347Z,13.60
2018-11-04T21:00:23.182Z,13.13
2018-11-04T21:02:51.840Z,13.15
2018-11-04T21:05:20.854Z,13.80
2018-11-04T21:07:49.555Z,14.25
2018-11-04T21:10:18.401Z,14.83
2018-11-04T21:12:47.293Z,15.80
2018-11-04T21:15:16.474Z,14.13
2018-11-04T21:17:45.478Z,14.47
2018-11-04T21:20:14.958Z,12.85
2018-11-04T21:22:43.996Z,13.65
2018-11-04T21:25:12.893Z,13.65
2018-11-04T21:27:41.944Z,15.93
2018-11-04T21:30:12.536Z,12.15
2018-11-04T21:32:41.345Z,13.43
2018-11-04T21:35:10.244Z,14.78
2018-11-04T21:37:39.055Z,13.98
2018-11-04T21:40:09.227Z,13.13
2018-11-04T21:42:38.538Z,14.87
2018-11-04T21:45:10.905Z,14.15
2018-11-04T21:47:39.641Z,14.90
2018-11-04T21:50:09.214Z,14.68
2018-11-04T21:52:38.091Z,13.65
2018-11-04T21:55:10.243Z,13.88
2018-11-04T21:57:39.920Z,14.18
2018-11-04T22:00:10.809Z,15.18
2018-11-04T22:02:40.022Z,14.85
2018-11-04T22:05:09.846Z,14.33
2018-11-04T22:07:38.922Z,14.75
2018-11-04T22:10:10.818Z,15.00
2018-11-04T22:12:39.903Z,16.60
2018-11-04T22:15:09.236Z,14.73
2018-11-04T22:17:39.211Z,15.80
2018-11-04T22:20:09.868Z,15.30
2018-11-04T22:22:38.742Z,15.43
2018-11-04T22:25:08.541Z,14.43
2018-11-04T22:27:37.281Z,17.80
2018-11-04T22:30:08.271Z,14.50
2018-11-04T22:32:37.256Z,15.40
2018-11-04T22:35:06.783Z,15.25
2018-11-04T22:37:35.862Z,14.73
2018-11-04T22:40:05.917Z,16.37
2018-11-04T22:42:35.598Z,15.68
2018-11-04T22:45:05.126Z,16.60
2018-11-04T22:47:34.597Z,14.00
2018-11-04T22:50:03.443Z,15.65
2018-11-04T22:52:32.300Z,15.83
2018-11-04T22:55:01.279Z,15.48
2018-11-04T22:57:30.009Z,15.50
2018-11-04T22:59:59.265Z,16.77
2018-11-04T23:02:28.118Z,18.37
2018-11-04T23:05:02.230Z,15.90
2018-11-04T23:07:31.414Z,16.20
2018-11-04T23:10:00.659Z,15.83
2018-11-04T23:12:29.572Z,16.02
2018-11-04T23:14:58.341Z,15.85
2018-11-04T23:17:27.380Z,15.93
2018-11-04T23:19:56.449Z,16.10
2018-11-04T23:22:26.254Z,17.60
2018-11-04T23:24:54.971Z,16.85
2018-11-04T23:27:24.612Z,15.95
2018-11-04T23:29:53.432Z,14.05
2018-11-04T23:32:22.846Z,17.00
2018-11-04T23:34:51.669Z,17.05
2018-11-04T23:37:20.552Z,16.37
2018-11-04T23:39:49.646Z,17.20
2018-11-04T23:42:18.586Z,17.50
2018-11-04T23:44:47.431Z,15.90
2018-11-04T23:47:16.307Z,16.27
2018-11-04T23:49:45.071Z,15.43
2018-11-04T23:52:13.845Z,16.27
2018-11-04T23:54:42.657Z,17.35
2018-11-04T23:57:11.632Z,16.48
2018-11-04T23:59:41.173Z,17.37
